Van Wert, Pennsylvania
Current Conditions -  °F | °C
As of 12:53 PM on Thursday 30 Oct 2014 (Local Time) from KSEG Reporting Station
Overcast Overcast  
Wind Chill: 54°   Ceiling: 5000
Heat Index: 54°   Visibility: 10mi
Dew Point: 37°   Wind: 6mph
Humidity: 53%   Direction: NA
Pressure: 30.05"   Gusts: NA
Location:  40.5853°N, 77.3611°W
Report Text: KSEG 301653Z AUTO VRB05KT 10SM OVC050 12/03 A3005 RMK AO2 SLP176 T01220028
Loading
Personal Weather Stations






























Interactive Weather Map
Tropical Storm Tracking
New forecast layout! Learn more

10-Day Weather Forecast

Advertisements
Track Severe Weather on mobile